sensor_id;sensor_type;location;lat;lon;timestamp;P1;durP1;ratioP1;P2;durP2;ratioP2
46643;SDS011;32371;51.032;5.816;2024-03-23T00:53:25;4.93;;;1.42;;
46643;SDS011;32371;51.032;5.816;2024-03-23T00:55:50;3.15;;;1.30;;
46643;SDS011;32371;51.032;5.816;2024-03-23T00:58:16;4.78;;;1.20;;
46643;SDS011;32371;51.032;5.816;2024-03-23T01:00:42;5.57;;;1.60;;
46643;SDS011;32371;51.032;5.816;2024-03-23T01:03:07;6.53;;;1.77;;
46643;SDS011;32371;51.032;5.816;2024-03-23T01:05:33;5.68;;;1.42;;
46643;SDS011;32371;51.032;5.816;2024-03-23T01:07:58;8.02;;;1.52;;
46643;SDS011;32371;51.032;5.816;2024-03-23T01:10:23;6.22;;;1.40;;
46643;SDS011;32371;51.032;5.816;2024-03-23T01:12:49;4.00;;;1.20;;
46643;SDS011;32371;51.032;5.816;2024-03-23T01:15:14;6.47;;;1.25;;
46643;SDS011;32371;51.032;5.816;2024-03-23T01:17:40;3.63;;;1.48;;
46643;SDS011;32371;51.032;5.816;2024-03-23T01:20:05;3.40;;;1.20;;
46643;SDS011;32371;51.032;5.816;2024-03-23T01:22:31;6.18;;;1.63;;
46643;SDS011;32371;51.032;5.816;2024-03-23T01:24:56;7.75;;;1.52;;
46643;SDS011;32371;51.032;5.816;2024-03-23T01:27:22;9.93;;;1.75;;
46643;SDS011;32371;51.032;5.816;2024-03-23T01:29:48;8.85;;;2.17;;
46643;SDS011;32371;51.032;5.816;2024-03-23T01:32:13;2.67;;;1.90;;
46643;SDS011;32371;51.032;5.816;2024-03-23T01:34:39;3.22;;;1.17;;
46643;SDS011;32371;51.032;5.816;2024-03-23T01:37:04;9.48;;;1.38;;
46643;SDS011;32371;51.032;5.816;2024-03-23T01:39:29;8.45;;;1.77;;
46643;SDS011;32371;51.032;5.816;2024-03-23T01:41:55;2.20;;;1.08;;
46643;SDS011;32371;51.032;5.816;2024-03-23T01:44:20;8.57;;;1.52;;
46643;SDS011;32371;51.032;5.816;2024-03-23T01:46:45;11.85;;;2.13;;
46643;SDS011;32371;51.032;5.816;2024-03-23T01:49:11;12.32;;;1.83;;
46643;SDS011;32371;51.032;5.816;2024-03-23T01:51:36;4.18;;;1.10;;
46643;SDS011;32371;51.032;5.816;2024-03-23T01:54:02;13.68;;;2.13;;
46643;SDS011;32371;51.032;5.816;2024-03-23T01:56:31;6.15;;;1.35;;
46643;SDS011;32371;51.032;5.816;2024-03-23T01:59:00;2.95;;;1.20;;
46643;SDS011;32371;51.032;5.816;2024-03-23T02:01:26;5.28;;;1.70;;
46643;SDS011;32371;51.032;5.816;2024-03-23T02:03:52;3.88;;;1.67;;
46643;SDS011;32371;51.032;5.816;2024-03-23T02:06:17;7.10;;;1.10;;
46643;SDS011;32371;51.032;5.816;2024-03-23T02:08:43;5.07;;;1.35;;
46643;SDS011;32371;51.032;5.816;2024-03-23T02:11:08;8.75;;;1.20;;
46643;SDS011;32371;51.032;5.816;2024-03-23T02:13:34;4.30;;;1.00;;
46643;SDS011;32371;51.032;5.816;2024-03-23T02:15:59;5.32;;;2.28;;
46643;SDS011;32371;51.032;5.816;2024-03-23T02:18:24;4.53;;;1.23;;
46643;SDS011;32371;51.032;5.816;2024-03-23T02:20:50;6.65;;;1.25;;
46643;SDS011;32371;51.032;5.816;2024-03-23T02:23:15;5.07;;;1.90;;
46643;SDS011;32371;51.032;5.816;2024-03-23T02:25:41;6.63;;;1.65;;
46643;SDS011;32371;51.032;5.816;2024-03-23T02:28:07;11.57;;;2.53;;
46643;SDS011;32371;51.032;5.816;2024-03-23T02:30:32;5.53;;;1.30;;
46643;SDS011;32371;51.032;5.816;2024-03-23T02:32:58;4.18;;;1.73;;
46643;SDS011;32371;51.032;5.816;2024-03-23T02:35:23;5.13;;;1.73;;
46643;SDS011;32371;51.032;5.816;2024-03-23T02:37:48;10.95;;;1.50;;
46643;SDS011;32371;51.032;5.816;2024-03-23T02:40:14;10.27;;;1.65;;
46643;SDS011;32371;51.032;5.816;2024-03-23T02:42:40;9.35;;;1.48;;
46643;SDS011;32371;51.032;5.816;2024-03-23T02:45:06;2.97;;;1.35;;
46643;SDS011;32371;51.032;5.816;2024-03-23T02:47:32;5.90;;;2.60;;
46643;SDS011;32371;51.032;5.816;2024-03-23T02:49:57;8.02;;;1.55;;
46643;SDS011;32371;51.032;5.816;2024-03-23T02:52:23;10.65;;;1.50;;
46643;SDS011;32371;51.032;5.816;2024-03-23T02:54:48;5.53;;;1.38;;
46643;SDS011;32371;51.032;5.816;2024-03-23T02:57:14;4.15;;;1.17;;
46643;SDS011;32371;51.032;5.816;2024-03-23T02:59:39;10.70;;;2.03;;
46643;SDS011;32371;51.032;5.816;2024-03-23T03:02:04;6.03;;;1.55;;
46643;SDS011;32371;51.032;5.816;2024-03-23T03:04:30;7.35;;;1.10;;
46643;SDS011;32371;51.032;5.816;2024-03-23T03:06:56;8.50;;;1.65;;
46643;SDS011;32371;51.032;5.816;2024-03-23T03:09:21;4.65;;;1.48;;
46643;SDS011;32371;51.032;5.816;2024-03-23T03:11:47;9.48;;;1.95;;
46643;SDS011;32371;51.032;5.816;2024-03-23T03:14:12;7.72;;;1.33;;
46643;SDS011;32371;51.032;5.816;2024-03-23T03:16:37;10.52;;;1.80;;
46643;SDS011;32371;51.032;5.816;2024-03-23T03:19:03;7.20;;;1.75;;
46643;SDS011;32371;51.032;5.816;2024-03-23T03:21:28;5.13;;;1.40;;
46643;SDS011;32371;51.032;5.816;2024-03-23T03:23:54;7.68;;;1.40;;
46643;SDS011;32371;51.032;5.816;2024-03-23T03:26:21;9.85;;;1.52;;
46643;SDS011;32371;51.032;5.816;2024-03-23T03:28:46;6.00;;;1.08;;
46643;SDS011;32371;51.032;5.816;2024-03-23T03:31:16;7.97;;;1.90;;
46643;SDS011;32371;51.032;5.816;2024-03-23T03:33:43;9.52;;;1.77;;
46643;SDS011;32371;51.032;5.816;2024-03-23T03:36:08;3.13;;;1.10;;
46643;SDS011;32371;51.032;5.816;2024-03-23T03:38:34;6.07;;;1.67;;
46643;SDS011;32371;51.032;5.816;2024-03-23T03:41:03;7.20;;;1.58;;
46643;SDS011;32371;51.032;5.816;2024-03-23T03:43:29;3.20;;;2.08;;
46643;SDS011;32371;51.032;5.816;2024-03-23T03:45:54;11.48;;;1.83;;
46643;SDS011;32371;51.032;5.816;2024-03-23T03:48:20;3.88;;;2.15;;
46643;SDS011;32371;51.032;5.816;2024-03-23T03:50:46;6.93;;;1.42;;
46643;SDS011;32371;51.032;5.816;2024-03-23T03:53:11;6.47;;;1.60;;
46643;SDS011;32371;51.032;5.816;2024-03-23T03:55:36;8.73;;;1.45;;
46643;SDS011;32371;51.032;5.816;2024-03-23T03:58:02;5.93;;;1.95;;
46643;SDS011;32371;51.032;5.816;2024-03-23T04:00:28;4.88;;;1.42;;
46643;SDS011;32371;51.032;5.816;2024-03-23T04:02:53;6.68;;;1.42;;
46643;SDS011;32371;51.032;5.816;2024-03-23T04:05:18;7.68;;;1.75;;
46643;SDS011;32371;51.032;5.816;2024-03-23T04:07:45;5.05;;;1.95;;
46643;SDS011;32371;51.032;5.816;2024-03-23T04:10:10;12.50;;;1.65;;
46643;SDS011;32371;51.032;5.816;2024-03-23T04:12:36;5.40;;;1.33;;
46643;SDS011;32371;51.032;5.816;2024-03-23T04:15:01;8.98;;;1.90;;
46643;SDS011;32371;51.032;5.816;2024-03-23T04:17:28;6.40;;;1.65;;
46643;SDS011;32371;51.032;5.816;2024-03-23T04:19:56;10.70;;;1.80;;
46643;SDS011;32371;51.032;5.816;2024-03-23T04:22:22;7.40;;;2.33;;
46643;SDS011;32371;51.032;5.816;2024-03-23T04:24:49;9.52;;;2.47;;
46643;SDS011;32371;51.032;5.816;2024-03-23T04:27:14;10.07;;;2.35;;
46643;SDS011;32371;51.032;5.816;2024-03-23T04:29:39;7.03;;;2.75;;
46643;SDS011;32371;51.032;5.816;2024-03-23T04:32:05;7.20;;;2.63;;
46643;SDS011;32371;51.032;5.816;2024-03-23T04:34:30;4.22;;;2.15;;
46643;SDS011;32371;51.032;5.816;2024-03-23T04:36:57;8.40;;;2.65;;
46643;SDS011;32371;51.032;5.816;2024-03-23T04:39:23;4.90;;;2.20;;
46643;SDS011;32371;51.032;5.816;2024-03-23T04:41:48;7.15;;;2.33;;
46643;SDS011;32371;51.032;5.816;2024-03-23T04:44:14;6.63;;;2.33;;
46643;SDS011;32371;51.032;5.816;2024-03-23T04:46:39;11.63;;;2.25;;
46643;SDS011;32371;51.032;5.816;2024-03-23T04:49:05;12.05;;;3.00;;
46643;SDS011;32371;51.032;5.816;2024-03-23T04:51:35;5.90;;;2.22;;
46643;SDS011;32371;51.032;5.816;2024-03-23T04:54:01;9.52;;;2.60;;
46643;SDS011;32371;51.032;5.816;2024-03-23T04:56:27;5.47;;;2.00;;
46643;SDS011;32371;51.032;5.816;2024-03-23T04:58:52;10.98;;;2.42;;
46643;SDS011;32371;51.032;5.816;2024-03-23T05:01:17;8.48;;;2.53;;
46643;SDS011;32371;51.032;5.816;2024-03-23T05:03:43;7.03;;;2.40;;
46643;SDS011;32371;51.032;5.816;2024-03-23T05:06:08;11.50;;;1.58;;
46643;SDS011;32371;51.032;5.816;2024-03-23T05:08:34;8.02;;;1.77;;
46643;SDS011;32371;51.032;5.816;2024-03-23T05:10:59;9.70;;;2.33;;
46643;SDS011;32371;51.032;5.816;2024-03-23T05:13:24;4.38;;;1.42;;
46643;SDS011;32371;51.032;5.816;2024-03-23T05:15:53;13.02;;;2.15;;
46643;SDS011;32371;51.032;5.816;2024-03-23T05:18:19;8.50;;;1.73;;
46643;SDS011;32371;51.032;5.816;2024-03-23T05:20:45;4.30;;;2.05;;
46643;SDS011;32371;51.032;5.816;2024-03-23T05:23:10;5.78;;;1.50;;
46643;SDS011;32371;51.032;5.816;2024-03-23T05:25:35;14.52;;;2.30;;
46643;SDS011;32371;51.032;5.816;2024-03-23T05:28:00;9.32;;;2.33;;
46643;SDS011;32371;51.032;5.816;2024-03-23T05:30:26;9.60;;;1.73;;
46643;SDS011;32371;51.032;5.816;2024-03-23T05:32:51;13.45;;;3.13;;
46643;SDS011;32371;51.032;5.816;2024-03-23T05:35:16;5.80;;;2.00;;
46643;SDS011;32371;51.032;5.816;2024-03-23T05:37:42;11.20;;;2.72;;
46643;SDS011;32371;51.032;5.816;2024-03-23T05:40:07;4.65;;;1.88;;
46643;SDS011;32371;51.032;5.816;2024-03-23T05:42:34;5.47;;;2.20;;
46643;SDS011;32371;51.032;5.816;2024-03-23T05:44:59;8.13;;;2.53;;
46643;SDS011;32371;51.032;5.816;2024-03-23T05:47:25;9.52;;;2.22;;
46643;SDS011;32371;51.032;5.816;2024-03-23T05:49:50;11.73;;;2.80;;
46643;SDS011;32371;51.032;5.816;2024-03-23T05:52:17;7.60;;;2.35;;
46643;SDS011;32371;51.032;5.816;2024-03-23T05:54:42;9.43;;;2.65;;
46643;SDS011;32371;51.032;5.816;2024-03-23T05:57:08;6.50;;;1.55;;
46643;SDS011;32371;51.032;5.816;2024-03-23T05:59:34;13.02;;;2.33;;
46643;SDS011;32371;51.032;5.816;2024-03-23T06:01:59;10.43;;;3.00;;
46643;SDS011;32371;51.032;5.816;2024-03-23T06:04:25;11.52;;;2.97;;
46643;SDS011;32371;51.032;5.816;2024-03-23T06:06:53;8.93;;;2.40;;
46643;SDS011;32371;51.032;5.816;2024-03-23T06:09:19;12.85;;;2.47;;
46643;SDS011;32371;51.032;5.816;2024-03-23T06:11:44;11.55;;;2.17;;
46643;SDS011;32371;51.032;5.816;2024-03-23T06:14:10;9.13;;;3.22;;
46643;SDS011;32371;51.032;5.816;2024-03-23T06:16:35;8.10;;;2.10;;
46643;SDS011;32371;51.032;5.816;2024-03-23T06:19:01;8.63;;;3.33;;
46643;SDS011;32371;51.032;5.816;2024-03-23T06:21:28;10.50;;;2.75;;
46643;SDS011;32371;51.032;5.816;2024-03-23T06:23:54;7.88;;;2.75;;
46643;SDS011;32371;51.032;5.816;2024-03-23T06:26:22;8.70;;;3.15;;
46643;SDS011;32371;51.032;5.816;2024-03-23T06:28:48;12.48;;;4.35;;
46643;SDS011;32371;51.032;5.816;2024-03-23T06:31:13;8.57;;;3.20;;
46643;SDS011;32371;51.032;5.816;2024-03-23T06:33:38;7.15;;;2.17;;
46643;SDS011;32371;51.032;5.816;2024-03-23T06:36:05;2.88;;;1.02;;
46643;SDS011;32371;51.032;5.816;2024-03-23T06:38:31;1.58;;;0.85;;
46643;SDS011;32371;51.032;5.816;2024-03-23T06:40:56;2.25;;;0.98;;
46643;SDS011;32371;51.032;5.816;2024-03-23T06:43:21;2.15;;;0.60;;
46643;SDS011;32371;51.032;5.816;2024-03-23T06:45:53;3.40;;;1.35;;
46643;SDS011;32371;51.032;5.816;2024-03-23T06:48:19;3.88;;;1.60;;
46643;SDS011;32371;51.032;5.816;2024-03-23T06:50:45;9.02;;;1.30;;
46643;SDS011;32371;51.032;5.816;2024-03-23T06:53:11;2.38;;;1.05;;
46643;SDS011;32371;51.032;5.816;2024-03-23T06:55:37;5.68;;;1.05;;
46643;SDS011;32371;51.032;5.816;2024-03-23T06:58:02;4.35;;;0.90;;
46643;SDS011;32371;51.032;5.816;2024-03-23T07:00:28;9.80;;;1.42;;
46643;SDS011;32371;51.032;5.816;2024-03-23T07:02:54;3.20;;;1.00;;
46643;SDS011;32371;51.032;5.816;2024-03-23T07:05:20;2.30;;;1.00;;
46643;SDS011;32371;51.032;5.816;2024-03-23T07:07:45;5.43;;;1.40;;
46643;SDS011;32371;51.032;5.816;2024-03-23T07:10:10;2.80;;;1.17;;
46643;SDS011;32371;51.032;5.816;2024-03-23T07:12:36;4.68;;;1.35;;
46643;SDS011;32371;51.032;5.816;2024-03-23T07:15:01;6.95;;;1.52;;
46643;SDS011;32371;51.032;5.816;2024-03-23T07:17:27;2.45;;;1.40;;
46643;SDS011;32371;51.032;5.816;2024-03-23T07:19:53;3.10;;;1.38;;
46643;SDS011;32371;51.032;5.816;2024-03-23T07:22:18;5.18;;;1.38;;
46643;SDS011;32371;51.032;5.816;2024-03-23T07:24:43;7.40;;;2.10;;
46643;SDS011;32371;51.032;5.816;2024-03-23T07:27:09;3.20;;;1.83;;
46643;SDS011;32371;51.032;5.816;2024-03-23T07:29:35;10.90;;;2.70;;
46643;SDS011;32371;51.032;5.816;2024-03-23T07:32:01;6.72;;;2.78;;
46643;SDS011;32371;51.032;5.816;2024-03-23T07:34:26;11.43;;;4.03;;
46643;SDS011;32371;51.032;5.816;2024-03-23T07:36:51;5.40;;;2.63;;
46643;SDS011;32371;51.032;5.816;2024-03-23T07:39:17;6.00;;;3.30;;
46643;SDS011;32371;51.032;5.816;2024-03-23T07:41:44;14.80;;;3.35;;
46643;SDS011;32371;51.032;5.816;2024-03-23T07:44:10;8.00;;;3.35;;
46643;SDS011;32371;51.032;5.816;2024-03-23T07:46:35;8.45;;;3.90;;
46643;SDS011;32371;51.032;5.816;2024-03-23T07:49:00;12.30;;;4.15;;
46643;SDS011;32371;51.032;5.816;2024-03-23T07:51:26;7.88;;;4.03;;
46643;SDS011;32371;51.032;5.816;2024-03-23T07:53:51;8.63;;;2.88;;
46643;SDS011;32371;51.032;5.816;2024-03-23T07:56:17;10.95;;;3.22;;
46643;SDS011;32371;51.032;5.816;2024-03-23T07:58:44;5.43;;;2.47;;
46643;SDS011;32371;51.032;5.816;2024-03-23T08:01:13;11.65;;;2.80;;
46643;SDS011;32371;51.032;5.816;2024-03-23T08:03:40;8.20;;;3.30;;
46643;SDS011;32371;51.032;5.816;2024-03-23T08:06:13;14.85;;;2.90;;
46643;SDS011;32371;51.032;5.816;2024-03-23T08:11:05;10.52;;;2.22;;
46643;SDS011;32371;51.032;5.816;2024-03-23T08:13:32;12.90;;;2.40;;
46643;SDS011;32371;51.032;5.816;2024-03-23T08:16:01;7.10;;;2.00;;
46643;SDS011;32371;51.032;5.816;2024-03-23T08:18:28;8.38;;;2.78;;
46643;SDS011;32371;51.032;5.816;2024-03-23T08:21:00;6.80;;;2.10;;
46643;SDS011;32371;51.032;5.816;2024-03-23T08:23:31;11.40;;;2.40;;
46643;SDS011;32371;51.032;5.816;2024-03-23T08:26:02;11.65;;;2.60;;
46643;SDS011;32371;51.032;5.816;2024-03-23T08:28:28;10.13;;;2.47;;
46643;SDS011;32371;51.032;5.816;2024-03-23T08:30:54;23.10;;;2.80;;
46643;SDS011;32371;51.032;5.816;2024-03-23T08:33:20;5.50;;;1.73;;
46643;SDS011;32371;51.032;5.816;2024-03-23T08:35:55;9.13;;;1.42;;
46643;SDS011;32371;51.032;5.816;2024-03-23T08:38:24;6.47;;;1.98;;
46643;SDS011;32371;51.032;5.816;2024-03-23T08:43:45;4.57;;;1.33;;
46643;SDS011;32371;51.032;5.816;2024-03-23T08:46:14;8.23;;;2.10;;
46643;SDS011;32371;51.032;5.816;2024-03-23T08:48:44;6.25;;;1.63;;
46643;SDS011;32371;51.032;5.816;2024-03-23T08:51:11;10.88;;;2.20;;
46643;SDS011;32371;51.032;5.816;2024-03-23T08:53:38;8.35;;;1.40;;
46643;SDS011;32371;51.032;5.816;2024-03-23T08:56:04;9.30;;;2.05;;
46643;SDS011;32371;51.032;5.816;2024-03-23T08:58:33;13.65;;;2.17;;
46643;SDS011;32371;51.032;5.816;2024-03-23T09:01:03;7.03;;;1.20;;
46643;SDS011;32371;51.032;5.816;2024-03-23T09:03:38;6.40;;;1.40;;
46643;SDS011;32371;51.032;5.816;2024-03-23T09:06:21;6.82;;;1.65;;
46643;SDS011;32371;51.032;5.816;2024-03-23T09:08:47;9.07;;;1.27;;
46643;SDS011;32371;51.032;5.816;2024-03-23T09:11:12;5.38;;;1.35;;
46643;SDS011;32371;51.032;5.816;2024-03-23T09:13:38;5.60;;;2.08;;
46643;SDS011;32371;51.032;5.816;2024-03-23T09:16:04;5.97;;;1.27;;
46643;SDS011;32371;51.032;5.816;2024-03-23T09:18:33;11.07;;;1.65;;
46643;SDS011;32371;51.032;5.816;2024-03-23T09:21:03;13.85;;;1.50;;
46643;SDS011;32371;51.032;5.816;2024-03-23T09:23:29;10.70;;;1.17;;
46643;SDS011;32371;51.032;5.816;2024-03-23T09:25:54;12.27;;;1.08;;
46643;SDS011;32371;51.032;5.816;2024-03-23T09:28:20;3.15;;;1.08;;
46643;SDS011;32371;51.032;5.816;2024-03-23T09:30:45;6.05;;;1.33;;
46643;SDS011;32371;51.032;5.816;2024-03-23T09:33:11;6.05;;;1.25;;
46643;SDS011;32371;51.032;5.816;2024-03-23T09:35:40;5.13;;;1.48;;
46643;SDS011;32371;51.032;5.816;2024-03-23T09:38:07;2.97;;;1.02;;
46643;SDS011;32371;51.032;5.816;2024-03-23T09:40:33;8.23;;;1.35;;
46643;SDS011;32371;51.032;5.816;2024-03-23T09:42:59;3.42;;;0.80;;
46643;SDS011;32371;51.032;5.816;2024-03-23T09:45:28;7.47;;;0.93;;
46643;SDS011;32371;51.032;5.816;2024-03-23T09:47:57;4.93;;;1.13;;
46643;SDS011;32371;51.032;5.816;2024-03-23T09:50:22;7.45;;;1.23;;
46643;SDS011;32371;51.032;5.816;2024-03-23T09:52:48;6.10;;;0.90;;
46643;SDS011;32371;51.032;5.816;2024-03-23T09:55:13;6.75;;;0.80;;
46643;SDS011;32371;51.032;5.816;2024-03-23T09:57:39;2.78;;;0.90;;
46643;SDS011;32371;51.032;5.816;2024-03-23T10:00:05;4.50;;;1.00;;
46643;SDS011;32371;51.032;5.816;2024-03-23T10:02:36;6.63;;;1.02;;
46643;SDS011;32371;51.032;5.816;2024-03-23T10:05:02;3.40;;;1.20;;
46643;SDS011;32371;51.032;5.816;2024-03-23T10:07:27;5.07;;;0.77;;
46643;SDS011;32371;51.032;5.816;2024-03-23T10:09:53;5.40;;;1.00;;
46643;SDS011;32371;51.032;5.816;2024-03-23T10:12:19;9.25;;;1.13;;
46643;SDS011;32371;51.032;5.816;2024-03-23T10:14:45;6.70;;;1.20;;
46643;SDS011;32371;51.032;5.816;2024-03-23T10:19:38;6.50;;;1.40;;
46643;SDS011;32371;51.032;5.816;2024-03-23T10:22:04;2.28;;;0.90;;
46643;SDS011;32371;51.032;5.816;2024-03-23T10:24:29;3.92;;;0.90;;
46643;SDS011;32371;51.032;5.816;2024-03-23T10:26:57;2.60;;;0.73;;
46643;SDS011;32371;51.032;5.816;2024-03-23T10:29:23;7.05;;;1.23;;
46643;SDS011;32371;51.032;5.816;2024-03-23T10:31:48;5.88;;;1.52;;
46643;SDS011;32371;51.032;5.816;2024-03-23T10:34:15;1.90;;;1.35;;
46643;SDS011;32371;51.032;5.816;2024-03-23T10:36:40;5.88;;;1.35;;
46643;SDS011;32371;51.032;5.816;2024-03-23T10:39:07;2.28;;;1.15;;
46643;SDS011;32371;51.032;5.816;2024-03-23T10:41:32;4.53;;;0.75;;
46643;SDS011;32371;51.032;5.816;2024-03-23T10:43:58;8.20;;;1.17;;
46643;SDS011;32371;51.032;5.816;2024-03-23T10:46:24;4.13;;;0.98;;
46643;SDS011;32371;51.032;5.816;2024-03-23T10:48:50;4.28;;;1.10;;
46643;SDS011;32371;51.032;5.816;2024-03-23T10:51:15;4.38;;;1.20;;
46643;SDS011;32371;51.032;5.816;2024-03-23T10:53:41;7.05;;;1.10;;
46643;SDS011;32371;51.032;5.816;2024-03-23T10:56:07;5.28;;;1.25;;
46643;SDS011;32371;51.032;5.816;2024-03-23T10:58:40;4.68;;;1.08;;
46643;SDS011;32371;51.032;5.816;2024-03-23T11:01:11;5.10;;;1.42;;
46643;SDS011;32371;51.032;5.816;2024-03-23T11:03:39;4.00;;;0.98;;
46643;SDS011;32371;51.032;5.816;2024-03-23T11:08:37;2.17;;;0.40;;
46643;SDS011;32371;51.032;5.816;2024-03-23T11:11:22;2.08;;;0.35;;
46643;SDS011;32371;51.032;5.816;2024-03-23T11:13:54;3.90;;;0.65;;
46643;SDS011;32371;51.032;5.816;2024-03-23T11:16:29;6.10;;;0.70;;
46643;SDS011;32371;51.032;5.816;2024-03-23T11:22:04;4.07;;;0.52;;
46643;SDS011;32371;51.032;5.816;2024-03-23T11:24:30;0.40;;;0.15;;
46643;SDS011;32371;51.032;5.816;2024-03-23T11:26:55;1.15;;;0.10;;
46643;SDS011;32371;51.032;5.816;2024-03-23T11:29:21;2.67;;;0.35;;
46643;SDS011;32371;51.032;5.816;2024-03-23T11:34:16;0.00;;;0.00;;
46643;SDS011;32371;51.032;5.816;2024-03-23T11:36:42;0.00;;;0.00;;
46643;SDS011;32371;51.032;5.816;2024-03-23T11:39:15;1.30;;;0.20;;
46643;SDS011;32371;51.032;5.816;2024-03-23T11:41:51;1.20;;;0.30;;
46643;SDS011;32371;51.032;5.816;2024-03-23T11:46:52;1.33;;;0.40;;
46643;SDS011;32371;51.032;5.816;2024-03-23T11:51:47;1.20;;;0.30;;
46643;SDS011;32371;51.032;5.816;2024-03-23T11:54:13;1.95;;;0.30;;
46643;SDS011;32371;51.032;5.816;2024-03-23T11:56:38;1.50;;;0.25;;
46643;SDS011;32371;51.032;5.816;2024-03-23T11:59:03;0.22;;;0.20;;
46643;SDS011;32371;51.032;5.816;2024-03-23T12:01:29;2.05;;;0.20;;
46643;SDS011;32371;51.032;5.816;2024-03-23T12:03:54;0.32;;;0.30;;
46643;SDS011;32371;51.032;5.816;2024-03-23T12:06:20;2.85;;;0.88;;
46643;SDS011;32371;51.032;5.816;2024-03-23T12:08:45;0.82;;;0.52;;
46643;SDS011;32371;51.032;5.816;2024-03-23T12:11:11;4.35;;;0.80;;
46643;SDS011;32371;51.032;5.816;2024-03-23T12:13:38;5.68;;;0.77;;
46643;SDS011;32371;51.032;5.816;2024-03-23T12:18:40;4.70;;;0.73;;
46643;SDS011;32371;51.032;5.816;2024-03-23T12:21:06;2.65;;;0.85;;
46643;SDS011;32371;51.032;5.816;2024-03-23T12:23:32;3.53;;;0.63;;
46643;SDS011;32371;51.032;5.816;2024-03-23T12:25:57;2.60;;;0.90;;
46643;SDS011;32371;51.032;5.816;2024-03-23T12:28:23;2.50;;;0.90;;
46643;SDS011;32371;51.032;5.816;2024-03-23T12:30:48;2.35;;;0.47;;
46643;SDS011;32371;51.032;5.816;2024-03-23T12:33:14;1.27;;;0.52;;
46643;SDS011;32371;51.032;5.816;2024-03-23T12:35:39;2.17;;;0.70;;
46643;SDS011;32371;51.032;5.816;2024-03-23T12:38:04;1.92;;;1.05;;
46643;SDS011;32371;51.032;5.816;2024-03-23T12:40:30;4.38;;;1.02;;
46643;SDS011;32371;51.032;5.816;2024-03-23T12:42:55;2.17;;;0.57;;
46643;SDS011;32371;51.032;5.816;2024-03-23T12:45:23;1.35;;;0.25;;
46643;SDS011;32371;51.032;5.816;2024-03-23T12:47:49;2.30;;;0.38;;
46643;SDS011;32371;51.032;5.816;2024-03-23T12:50:14;4.57;;;0.77;;
46643;SDS011;32371;51.032;5.816;2024-03-23T12:52:40;1.25;;;0.35;;
46643;SDS011;32371;51.032;5.816;2024-03-23T12:55:05;1.38;;;0.50;;
46643;SDS011;32371;51.032;5.816;2024-03-23T12:57:31;0.73;;;0.40;;
46643;SDS011;32371;51.032;5.816;2024-03-23T12:59:57;1.40;;;0.40;;
46643;SDS011;32371;51.032;5.816;2024-03-23T13:02:22;3.10;;;0.50;;
46643;SDS011;32371;51.032;5.816;2024-03-23T13:04:51;2.75;;;0.90;;
46643;SDS011;32371;51.032;5.816;2024-03-23T13:07:18;2.05;;;0.50;;
46643;SDS011;32371;51.032;5.816;2024-03-23T13:09:44;0.38;;;0.38;;
46643;SDS011;32371;51.032;5.816;2024-03-23T13:12:09;5.22;;;0.80;;
46643;SDS011;32371;51.032;5.816;2024-03-23T13:14:37;2.53;;;0.77;;
46643;SDS011;32371;51.032;5.816;2024-03-23T13:17:02;2.10;;;0.68;;
46643;SDS011;32371;51.032;5.816;2024-03-23T13:19:28;3.97;;;1.23;;
46643;SDS011;32371;51.032;5.816;2024-03-23T13:21:56;3.38;;;0.82;;
46643;SDS011;32371;51.032;5.816;2024-03-23T13:24:23;5.22;;;0.90;;
46643;SDS011;32371;51.032;5.816;2024-03-23T13:26:49;2.15;;;1.08;;
46643;SDS011;32371;51.032;5.816;2024-03-23T13:29:18;2.35;;;0.80;;
46643;SDS011;32371;51.032;5.816;2024-03-23T13:31:44;2.08;;;0.70;;
46643;SDS011;32371;51.032;5.816;2024-03-23T13:34:09;2.08;;;0.80;;
46643;SDS011;32371;51.032;5.816;2024-03-23T13:36:35;1.77;;;0.75;;
46643;SDS011;32371;51.032;5.816;2024-03-23T13:39:01;6.22;;;1.08;;
46643;SDS011;32371;51.032;5.816;2024-03-23T13:41:31;3.78;;;1.33;;
46643;SDS011;32371;51.032;5.816;2024-03-23T13:43:56;2.03;;;0.80;;
46643;SDS011;32371;51.032;5.816;2024-03-23T13:46:22;5.72;;;0.52;;
46643;SDS011;32371;51.032;5.816;2024-03-23T13:48:47;3.45;;;0.77;;
46643;SDS011;32371;51.032;5.816;2024-03-23T13:51:12;2.17;;;0.90;;
46643;SDS011;32371;51.032;5.816;2024-03-23T13:53:38;2.20;;;0.90;;
46643;SDS011;32371;51.032;5.816;2024-03-23T13:56:03;3.88;;;1.15;;
46643;SDS011;32371;51.032;5.816;2024-03-23T13:58:29;7.50;;;0.90;;
46643;SDS011;32371;51.032;5.816;2024-03-23T14:00:56;1.63;;;0.73;;
46643;SDS011;32371;51.032;5.816;2024-03-23T14:03:23;1.65;;;0.73;;
46643;SDS011;32371;51.032;5.816;2024-03-23T14:05:48;1.67;;;0.60;;
46643;SDS011;32371;51.032;5.816;2024-03-23T14:08:13;2.83;;;0.70;;
46643;SDS011;32371;51.032;5.816;2024-03-23T14:10:41;2.28;;;0.90;;
46643;SDS011;32371;51.032;5.816;2024-03-23T14:13:07;1.48;;;0.63;;
46643;SDS011;32371;51.032;5.816;2024-03-23T14:15:33;2.83;;;0.57;;
46643;SDS011;32371;51.032;5.816;2024-03-23T14:17:58;2.38;;;0.70;;
46643;SDS011;32371;51.032;5.816;2024-03-23T14:20:25;1.17;;;0.60;;
46643;SDS011;32371;51.032;5.816;2024-03-23T14:22:51;3.60;;;0.98;;
46643;SDS011;32371;51.032;5.816;2024-03-23T14:25:17;2.78;;;0.63;;
46643;SDS011;32371;51.032;5.816;2024-03-23T14:27:45;2.70;;;0.60;;
46643;SDS011;32371;51.032;5.816;2024-03-23T14:30:11;3.53;;;0.60;;
46643;SDS011;32371;51.032;5.816;2024-03-23T14:32:37;3.75;;;0.90;;
46643;SDS011;32371;51.032;5.816;2024-03-23T14:35:03;3.85;;;1.42;;
46643;SDS011;32371;51.032;5.816;2024-03-23T14:37:29;1.08;;;0.60;;
46643;SDS011;32371;51.032;5.816;2024-03-23T14:39:55;2.80;;;0.60;;
46643;SDS011;32371;51.032;5.816;2024-03-23T14:42:21;1.05;;;0.50;;
46643;SDS011;32371;51.032;5.816;2024-03-23T14:44:47;2.78;;;0.73;;
46643;SDS011;32371;51.032;5.816;2024-03-23T14:47:12;0.60;;;0.50;;
46643;SDS011;32371;51.032;5.816;2024-03-23T14:49:38;6.32;;;1.83;;
46643;SDS011;32371;51.032;5.816;2024-03-23T14:52:03;1.75;;;0.60;;
46643;SDS011;32371;51.032;5.816;2024-03-23T14:54:29;6.00;;;0.90;;
46643;SDS011;32371;51.032;5.816;2024-03-23T14:56:54;2.03;;;0.65;;
46643;SDS011;32371;51.032;5.816;2024-03-23T14:59:21;2.60;;;0.77;;
46643;SDS011;32371;51.032;5.816;2024-03-23T15:01:46;2.42;;;0.70;;
46643;SDS011;32371;51.032;5.816;2024-03-23T15:04:12;4.53;;;1.00;;
46643;SDS011;32371;51.032;5.816;2024-03-23T15:06:37;2.55;;;1.15;;
46643;SDS011;32371;51.032;5.816;2024-03-23T15:09:02;1.05;;;0.68;;
46643;SDS011;32371;51.032;5.816;2024-03-23T15:11:32;6.47;;;1.10;;
46643;SDS011;32371;51.032;5.816;2024-03-23T15:13:58;1.83;;;1.27;;
46643;SDS011;32371;51.032;5.816;2024-03-23T15:16:23;4.15;;;0.63;;
46643;SDS011;32371;51.032;5.816;2024-03-23T15:18:48;2.50;;;1.00;;
46643;SDS011;32371;51.032;5.816;2024-03-23T15:21:14;1.92;;;0.70;;
46643;SDS011;32371;51.032;5.816;2024-03-23T15:23:44;1.75;;;0.80;;
46643;SDS011;32371;51.032;5.816;2024-03-23T15:26:10;1.25;;;0.73;;
46643;SDS011;32371;51.032;5.816;2024-03-23T15:28:35;2.55;;;0.90;;
46643;SDS011;32371;51.032;5.816;2024-03-23T15:31:27;1.35;;;0.80;;
46643;SDS011;32371;51.032;5.816;2024-03-23T15:33:52;4.95;;;1.20;;
46643;SDS011;32371;51.032;5.816;2024-03-23T15:36:18;1.95;;;0.77;;
46643;SDS011;32371;51.032;5.816;2024-03-23T15:38:43;4.43;;;0.85;;
46643;SDS011;32371;51.032;5.816;2024-03-23T15:41:10;2.17;;;0.70;;
46643;SDS011;32371;51.032;5.816;2024-03-23T15:43:35;4.32;;;0.73;;
46643;SDS011;32371;51.032;5.816;2024-03-23T15:46:04;0.82;;;0.75;;
46643;SDS011;32371;51.032;5.816;2024-03-23T15:48:31;2.75;;;0.77;;
46643;SDS011;32371;51.032;5.816;2024-03-23T15:50:58;4.75;;;0.70;;
46643;SDS011;32371;51.032;5.816;2024-03-23T15:53:24;1.42;;;0.60;;
46643;SDS011;32371;51.032;5.816;2024-03-23T15:58:19;1.98;;;1.02;;